Juan Atucha, Argentina
Current Conditions -  °F | °C
As of 11:00 PM on Monday 24 Nov 2014 (Local Time) from SAEZ Reporting Station
Broken Clouds Broken Clouds  
Wind Chill: 63°   Ceiling: 4800
Heat Index: 63°   Visibility: 6mi
Dew Point: 54°   Wind: 3mph
Humidity: 72%   Direction: 200°SSW
Pressure: 29.94"   Gusts: NA
Location:  35.48°S, 59.34°W
Report Text: SAEZ 250200Z 20003KT 9999 BKN048 SCT100 BKN200 17/12 Q1014
Loading
Personal Weather Stations






























Interactive Weather Map New forecast layout! Learn more

10-Day Weather Forecast

Advertisements
Track Severe Weather on mobile